Terminal Aerodrome Forecast
Issued by NWS

Home | Current Version | Previous Version | Text Only | Print | Product List | Glossary On
Versions: 1 2 3 4 5 6 7 8 9 10 11 12 13 14 15
038
FTUS43 KPAH 091720
TAFCGI
TAF
KCGI 091720Z 0918/1018 33007KT P6SM SCT250
     FM100000 00000KT P6SM SCT100
     FM101500 16007KT P6SM SCT100 BKN250=

USA.gov is the U.S. government's official web portal to all federal, state and local government web resources and services.